sensor_id;sensor_type;location;lat;lon;timestamp;P1;durP1;ratioP1;P2;durP2;ratioP2
20739;SDS011;10530;49.968;19.844;2022-07-06T00:02:14;14.75;;;7.80;;
20739;SDS011;10530;49.968;19.844;2022-07-06T00:07:17;11.60;;;6.80;;
20739;SDS011;10530;49.968;19.844;2022-07-06T00:12:20;10.75;;;6.65;;
20739;SDS011;10530;49.968;19.844;2022-07-06T00:17:23;13.25;;;7.32;;
20739;SDS011;10530;49.968;19.844;2022-07-06T00:22:26;12.47;;;7.07;;
20739;SDS011;10530;49.968;19.844;2022-07-06T00:27:29;11.95;;;7.10;;
20739;SDS011;10530;49.968;19.844;2022-07-06T00:32:32;12.87;;;6.37;;
20739;SDS011;10530;49.968;19.844;2022-07-06T00:37:35;13.20;;;7.05;;
20739;SDS011;10530;49.968;19.844;2022-07-06T00:42:47;13.60;;;7.07;;
20739;SDS011;10530;49.968;19.844;2022-07-06T00:47:50;11.70;;;6.60;;
20739;SDS011;10530;49.968;19.844;2022-07-06T00:52:54;12.82;;;6.47;;
20739;SDS011;10530;49.968;19.844;2022-07-06T00:58:01;10.70;;;6.20;;
20739;SDS011;10530;49.968;19.844;2022-07-06T01:03:06;10.43;;;6.00;;
20739;SDS011;10530;49.968;19.844;2022-07-06T01:08:09;12.20;;;6.53;;
20739;SDS011;10530;49.968;19.844;2022-07-06T01:13:12;12.53;;;6.90;;
20739;SDS011;10530;49.968;19.844;2022-07-06T01:18:14;12.75;;;7.05;;
20739;SDS011;10530;49.968;19.844;2022-07-06T01:23:18;14.60;;;8.10;;
20739;SDS011;10530;49.968;19.844;2022-07-06T01:28:20;18.23;;;7.97;;
20739;SDS011;10530;49.968;19.844;2022-07-06T01:33:24;13.63;;;7.53;;
20739;SDS011;10530;49.968;19.844;2022-07-06T01:38:27;13.47;;;7.80;;
20739;SDS011;10530;49.968;19.844;2022-07-06T01:43:30;13.25;;;7.85;;
20739;SDS011;10530;49.968;19.844;2022-07-06T01:48:33;13.00;;;7.30;;
20739;SDS011;10530;49.968;19.844;2022-07-06T01:53:36;13.55;;;7.03;;
20739;SDS011;10530;49.968;19.844;2022-07-06T01:58:40;13.00;;;7.10;;
20739;SDS011;10530;49.968;19.844;2022-07-06T02:03:44;11.57;;;7.00;;
20739;SDS011;10530;49.968;19.844;2022-07-06T02:08:48;11.65;;;6.95;;
20739;SDS011;10530;49.968;19.844;2022-07-06T02:13:54;11.93;;;6.50;;
20739;SDS011;10530;49.968;19.844;2022-07-06T02:18:58;11.55;;;6.90;;
20739;SDS011;10530;49.968;19.844;2022-07-06T02:24:02;15.00;;;6.95;;
20739;SDS011;10530;49.968;19.844;2022-07-06T02:29:05;14.33;;;7.30;;
20739;SDS011;10530;49.968;19.844;2022-07-06T02:34:09;14.05;;;7.82;;
20739;SDS011;10530;49.968;19.844;2022-07-06T02:39:12;14.33;;;7.43;;
20739;SDS011;10530;49.968;19.844;2022-07-06T02:44:15;16.77;;;8.73;;
20739;SDS011;10530;49.968;19.844;2022-07-06T02:49:18;17.10;;;8.82;;
20739;SDS011;10530;49.968;19.844;2022-07-06T02:54:21;16.50;;;9.00;;
20739;SDS011;10530;49.968;19.844;2022-07-06T02:59:24;16.08;;;9.25;;
20739;SDS011;10530;49.968;19.844;2022-07-06T03:04:27;16.73;;;9.13;;
20739;SDS011;10530;49.968;19.844;2022-07-06T03:09:30;17.85;;;9.73;;
20739;SDS011;10530;49.968;19.844;2022-07-06T03:14:33;20.75;;;9.98;;
20739;SDS011;10530;49.968;19.844;2022-07-06T03:19:36;20.57;;;10.40;;
20739;SDS011;10530;49.968;19.844;2022-07-06T03:24:39;22.73;;;11.48;;
20739;SDS011;10530;49.968;19.844;2022-07-06T03:29:43;18.77;;;10.33;;
20739;SDS011;10530;49.968;19.844;2022-07-06T03:34:46;20.65;;;10.30;;
20739;SDS011;10530;49.968;19.844;2022-07-06T03:39:49;21.45;;;10.57;;
20739;SDS011;10530;49.968;19.844;2022-07-06T03:44:52;22.37;;;11.27;;
20739;SDS011;10530;49.968;19.844;2022-07-06T03:49:56;21.13;;;10.82;;
20739;SDS011;10530;49.968;19.844;2022-07-06T03:54:59;24.90;;;11.50;;
20739;SDS011;10530;49.968;19.844;2022-07-06T04:00:04;22.23;;;10.77;;
20739;SDS011;10530;49.968;19.844;2022-07-06T04:05:15;24.75;;;12.15;;
20739;SDS011;10530;49.968;19.844;2022-07-06T04:10:24;24.83;;;11.93;;
20739;SDS011;10530;49.968;19.844;2022-07-06T04:15:29;24.25;;;11.45;;
20739;SDS011;10530;49.968;19.844;2022-07-06T04:20:33;22.67;;;11.67;;
20739;SDS011;10530;49.968;19.844;2022-07-06T04:25:36;20.83;;;10.63;;
20739;SDS011;10530;49.968;19.844;2022-07-06T04:30:39;23.67;;;11.18;;
20739;SDS011;10530;49.968;19.844;2022-07-06T04:35:46;20.50;;;10.33;;
20739;SDS011;10530;49.968;19.844;2022-07-06T04:40:50;25.67;;;11.55;;
20739;SDS011;10530;49.968;19.844;2022-07-06T04:45:54;19.87;;;9.83;;
20739;SDS011;10530;49.968;19.844;2022-07-06T04:50:57;23.65;;;10.77;;
20739;SDS011;10530;49.968;19.844;2022-07-06T04:56:03;19.30;;;9.38;;
20739;SDS011;10530;49.968;19.844;2022-07-06T05:01:09;15.10;;;7.77;;
20739;SDS011;10530;49.968;19.844;2022-07-06T05:06:12;14.55;;;7.45;;
20739;SDS011;10530;49.968;19.844;2022-07-06T05:11:15;11.03;;;6.20;;
20739;SDS011;10530;49.968;19.844;2022-07-06T05:16:18;10.68;;;5.45;;
20739;SDS011;10530;49.968;19.844;2022-07-06T05:21:22;9.48;;;5.40;;
20739;SDS011;10530;49.968;19.844;2022-07-06T05:26:25;8.47;;;4.80;;
20739;SDS011;10530;49.968;19.844;2022-07-06T05:31:28;8.85;;;5.00;;
20739;SDS011;10530;49.968;19.844;2022-07-06T05:36:32;9.00;;;4.77;;
20739;SDS011;10530;49.968;19.844;2022-07-06T05:41:36;10.48;;;5.13;;
20739;SDS011;10530;49.968;19.844;2022-07-06T05:46:39;8.23;;;5.10;;
20739;SDS011;10530;49.968;19.844;2022-07-06T05:51:44;10.67;;;4.87;;
20739;SDS011;10530;49.968;19.844;2022-07-06T05:56:47;11.07;;;5.38;;
20739;SDS011;10530;49.968;19.844;2022-07-06T06:01:50;10.97;;;4.93;;
20739;SDS011;10530;49.968;19.844;2022-07-06T06:06:57;8.88;;;4.97;;
20739;SDS011;10530;49.968;19.844;2022-07-06T06:12:00;8.88;;;4.80;;
20739;SDS011;10530;49.968;19.844;2022-07-06T06:17:04;10.03;;;4.50;;
20739;SDS011;10530;49.968;19.844;2022-07-06T06:22:10;9.20;;;4.70;;
20739;SDS011;10530;49.968;19.844;2022-07-06T06:27:13;7.47;;;4.67;;
20739;SDS011;10530;49.968;19.844;2022-07-06T06:32:16;7.90;;;4.43;;
20739;SDS011;10530;49.968;19.844;2022-07-06T06:37:19;6.72;;;4.05;;
20739;SDS011;10530;49.968;19.844;2022-07-06T06:42:22;10.10;;;4.43;;
20739;SDS011;10530;49.968;19.844;2022-07-06T06:47:26;9.50;;;4.50;;
20739;SDS011;10530;49.968;19.844;2022-07-06T06:52:29;8.33;;;4.77;;
20739;SDS011;10530;49.968;19.844;2022-07-06T06:57:41;7.43;;;4.13;;
20739;SDS011;10530;49.968;19.844;2022-07-06T07:02:44;7.55;;;4.10;;
20739;SDS011;10530;49.968;19.844;2022-07-06T07:07:47;7.03;;;4.13;;
20739;SDS011;10530;49.968;19.844;2022-07-06T07:12:50;7.65;;;4.28;;
20739;SDS011;10530;49.968;19.844;2022-07-06T07:17:53;6.40;;;3.97;;
20739;SDS011;10530;49.968;19.844;2022-07-06T07:22:56;10.75;;;4.90;;
20739;SDS011;10530;49.968;19.844;2022-07-06T07:27:59;8.05;;;4.95;;
20739;SDS011;10530;49.968;19.844;2022-07-06T07:33:02;7.17;;;3.87;;
20739;SDS011;10530;49.968;19.844;2022-07-06T07:38:05;5.88;;;3.75;;
20739;SDS011;10530;49.968;19.844;2022-07-06T07:43:09;7.53;;;3.70;;
20739;SDS011;10530;49.968;19.844;2022-07-06T07:48:12;6.57;;;3.90;;
20739;SDS011;10530;49.968;19.844;2022-07-06T07:53:15;10.52;;;5.20;;
20739;SDS011;10530;49.968;19.844;2022-07-06T07:58:18;12.53;;;6.17;;
20739;SDS011;10530;49.968;19.844;2022-07-06T08:03:22;7.85;;;4.57;;
20739;SDS011;10530;49.968;19.844;2022-07-06T08:08:25;11.37;;;5.93;;
20739;SDS011;10530;49.968;19.844;2022-07-06T08:13:28;10.50;;;5.88;;
20739;SDS011;10530;49.968;19.844;2022-07-06T08:18:31;11.57;;;6.50;;
20739;SDS011;10530;49.968;19.844;2022-07-06T08:23:34;12.40;;;6.50;;
20739;SDS011;10530;49.968;19.844;2022-07-06T08:28:37;11.63;;;7.05;;
20739;SDS011;10530;49.968;19.844;2022-07-06T08:33:41;15.17;;;6.60;;
20739;SDS011;10530;49.968;19.844;2022-07-06T08:38:43;14.73;;;8.15;;
20739;SDS011;10530;49.968;19.844;2022-07-06T08:43:46;17.45;;;9.57;;
20739;SDS011;10530;49.968;19.844;2022-07-06T08:48:49;23.63;;;11.27;;
20739;SDS011;10530;49.968;19.844;2022-07-06T08:53:54;22.38;;;11.02;;
20739;SDS011;10530;49.968;19.844;2022-07-06T08:58:58;23.73;;;11.20;;
20739;SDS011;10530;49.968;19.844;2022-07-06T09:04:02;20.15;;;10.05;;
20739;SDS011;10530;49.968;19.844;2022-07-06T09:09:08;26.13;;;12.02;;
20739;SDS011;10530;49.968;19.844;2022-07-06T09:14:12;29.67;;;14.53;;
20739;SDS011;10530;49.968;19.844;2022-07-06T09:19:15;28.27;;;14.10;;
20739;SDS011;10530;49.968;19.844;2022-07-06T09:24:18;23.73;;;11.73;;
20739;SDS011;10530;49.968;19.844;2022-07-06T09:29:31;27.35;;;12.18;;
20739;SDS011;10530;49.968;19.844;2022-07-06T09:34:46;22.75;;;12.15;;
20739;SDS011;10530;49.968;19.844;2022-07-06T09:39:49;21.03;;;11.90;;
20739;SDS011;10530;49.968;19.844;2022-07-06T09:44:52;21.30;;;11.38;;
20739;SDS011;10530;49.968;19.844;2022-07-06T09:49:56;19.77;;;11.30;;
20739;SDS011;10530;49.968;19.844;2022-07-06T09:55:05;20.42;;;12.43;;
20739;SDS011;10530;49.968;19.844;2022-07-06T10:00:17;16.45;;;10.43;;
20739;SDS011;10530;49.968;19.844;2022-07-06T10:05:21;15.73;;;9.90;;
20739;SDS011;10530;49.968;19.844;2022-07-06T10:10:31;14.18;;;9.48;;
20739;SDS011;10530;49.968;19.844;2022-07-06T10:15:35;14.33;;;9.87;;
20739;SDS011;10530;49.968;19.844;2022-07-06T10:20:39;11.80;;;7.75;;
20739;SDS011;10530;49.968;19.844;2022-07-06T10:25:43;11.63;;;8.00;;
20739;SDS011;10530;49.968;19.844;2022-07-06T10:30:49;11.23;;;7.00;;
20739;SDS011;10530;49.968;19.844;2022-07-06T10:35:53;10.70;;;7.47;;
20739;SDS011;10530;49.968;19.844;2022-07-06T10:41:01;13.67;;;7.80;;
20739;SDS011;10530;49.968;19.844;2022-07-06T10:46:11;10.23;;;6.93;;
20739;SDS011;10530;49.968;19.844;2022-07-06T10:51:26;10.30;;;7.10;;
20739;SDS011;10530;49.968;19.844;2022-07-06T10:56:36;11.00;;;6.97;;
20739;SDS011;10530;49.968;19.844;2022-07-06T11:01:42;8.75;;;6.18;;
20739;SDS011;10530;49.968;19.844;2022-07-06T11:07:22;10.33;;;7.17;;
20739;SDS011;10530;49.968;19.844;2022-07-06T11:12:25;8.43;;;6.07;;
20739;SDS011;10530;49.968;19.844;2022-07-06T11:17:28;10.10;;;6.00;;
20739;SDS011;10530;49.968;19.844;2022-07-06T11:22:31;6.73;;;4.90;;
20739;SDS011;10530;49.968;19.844;2022-07-06T11:27:33;9.75;;;5.20;;
20739;SDS011;10530;49.968;19.844;2022-07-06T11:32:36;7.43;;;5.47;;
20739;SDS011;10530;49.968;19.844;2022-07-06T11:37:39;7.68;;;5.13;;
20739;SDS011;10530;49.968;19.844;2022-07-06T11:42:54;6.80;;;5.57;;
20739;SDS011;10530;49.968;19.844;2022-07-06T11:48:10;8.37;;;5.17;;
20739;SDS011;10530;49.968;19.844;2022-07-06T11:53:14;7.22;;;4.53;;
20739;SDS011;10530;49.968;19.844;2022-07-06T11:58:21;7.13;;;4.97;;
20739;SDS011;10530;49.968;19.844;2022-07-06T12:03:25;7.00;;;4.90;;
20739;SDS011;10530;49.968;19.844;2022-07-06T12:08:28;6.28;;;4.28;;
20739;SDS011;10530;49.968;19.844;2022-07-06T12:13:35;5.40;;;3.50;;
20739;SDS011;10530;49.968;19.844;2022-07-06T12:18:42;6.65;;;4.03;;
20739;SDS011;10530;49.968;19.844;2022-07-06T12:23:47;6.30;;;3.70;;
20739;SDS011;10530;49.968;19.844;2022-07-06T12:34:25;5.18;;;3.00;;
20739;SDS011;10530;49.968;19.844;2022-07-06T12:39:30;5.77;;;2.73;;
20739;SDS011;10530;49.968;19.844;2022-07-06T12:44:33;4.32;;;2.60;;
20739;SDS011;10530;49.968;19.844;2022-07-06T12:49:45;4.10;;;2.60;;
20739;SDS011;10530;49.968;19.844;2022-07-06T12:54:49;4.75;;;2.55;;
20739;SDS011;10530;49.968;19.844;2022-07-06T13:10:08;5.30;;;3.53;;
20739;SDS011;10530;49.968;19.844;2022-07-06T13:15:12;7.03;;;3.60;;
20739;SDS011;10530;49.968;19.844;2022-07-06T13:20:16;4.63;;;3.03;;
20739;SDS011;10530;49.968;19.844;2022-07-06T13:25:20;5.45;;;3.30;;
20739;SDS011;10530;49.968;19.844;2022-07-06T13:30:24;4.83;;;3.30;;
20739;SDS011;10530;49.968;19.844;2022-07-06T13:35:27;4.88;;;3.40;;
20739;SDS011;10530;49.968;19.844;2022-07-06T13:40:30;4.47;;;3.00;;
20739;SDS011;10530;49.968;19.844;2022-07-06T13:45:33;5.22;;;3.25;;
20739;SDS011;10530;49.968;19.844;2022-07-06T13:50:36;4.30;;;2.80;;
20739;SDS011;10530;49.968;19.844;2022-07-06T13:55:39;6.37;;;3.33;;
20739;SDS011;10530;49.968;19.844;2022-07-06T14:00:42;5.03;;;3.45;;
20739;SDS011;10530;49.968;19.844;2022-07-06T14:05:45;5.50;;;3.10;;
20739;SDS011;10530;49.968;19.844;2022-07-06T14:10:48;5.47;;;3.13;;
20739;SDS011;10530;49.968;19.844;2022-07-06T14:15:51;4.80;;;3.45;;
20739;SDS011;10530;49.968;19.844;2022-07-06T14:20:57;4.83;;;3.00;;
20739;SDS011;10530;49.968;19.844;2022-07-06T14:26:02;4.30;;;2.63;;
20739;SDS011;10530;49.968;19.844;2022-07-06T14:31:05;4.90;;;3.03;;
20739;SDS011;10530;49.968;19.844;2022-07-06T14:36:07;3.95;;;2.30;;
20739;SDS011;10530;49.968;19.844;2022-07-06T14:41:10;4.35;;;2.13;;
20739;SDS011;10530;49.968;19.844;2022-07-06T14:46:13;5.30;;;1.77;;
20739;SDS011;10530;49.968;19.844;2022-07-06T14:51:16;4.93;;;1.70;;
20739;SDS011;10530;49.968;19.844;2022-07-06T14:56:19;3.90;;;1.70;;
20739;SDS011;10530;49.968;19.844;2022-07-06T15:01:22;5.18;;;2.05;;
20739;SDS011;10530;49.968;19.844;2022-07-06T15:06:25;4.82;;;2.40;;
20739;SDS011;10530;49.968;19.844;2022-07-06T15:11:48;5.77;;;2.60;;
20739;SDS011;10530;49.968;19.844;2022-07-06T15:16:54;5.30;;;3.00;;
20739;SDS011;10530;49.968;19.844;2022-07-06T15:21:57;5.60;;;3.10;;
20739;SDS011;10530;49.968;19.844;2022-07-06T15:27:01;6.50;;;3.55;;
20739;SDS011;10530;49.968;19.844;2022-07-06T15:32:06;5.90;;;3.22;;
20739;SDS011;10530;49.968;19.844;2022-07-06T15:37:09;6.90;;;4.00;;
20739;SDS011;10530;49.968;19.844;2022-07-06T15:42:12;6.28;;;2.80;;
20739;SDS011;10530;49.968;19.844;2022-07-06T15:47:16;5.47;;;3.10;;
20739;SDS011;10530;49.968;19.844;2022-07-06T15:52:20;5.32;;;2.92;;
20739;SDS011;10530;49.968;19.844;2022-07-06T15:57:24;5.18;;;3.30;;
20739;SDS011;10530;49.968;19.844;2022-07-06T16:02:27;5.03;;;2.83;;
20739;SDS011;10530;49.968;19.844;2022-07-06T16:07:30;7.78;;;2.90;;
20739;SDS011;10530;49.968;19.844;2022-07-06T16:12:53;5.43;;;3.00;;
20739;SDS011;10530;49.968;19.844;2022-07-06T16:17:56;5.45;;;2.95;;
20739;SDS011;10530;49.968;19.844;2022-07-06T16:22:59;5.65;;;2.95;;
20739;SDS011;10530;49.968;19.844;2022-07-06T16:28:02;5.77;;;2.40;;
20739;SDS011;10530;49.968;19.844;2022-07-06T16:33:05;4.40;;;2.42;;
20739;SDS011;10530;49.968;19.844;2022-07-06T16:38:08;6.73;;;3.10;;
20739;SDS011;10530;49.968;19.844;2022-07-06T16:43:11;5.85;;;2.40;;
20739;SDS011;10530;49.968;19.844;2022-07-06T16:48:17;5.53;;;2.70;;
20739;SDS011;10530;49.968;19.844;2022-07-06T16:53:20;7.80;;;2.60;;
20739;SDS011;10530;49.968;19.844;2022-07-06T16:58:23;5.72;;;2.97;;
20739;SDS011;10530;49.968;19.844;2022-07-06T17:03:26;4.90;;;2.67;;
20739;SDS011;10530;49.968;19.844;2022-07-06T17:08:31;4.97;;;2.38;;
20739;SDS011;10530;49.968;19.844;2022-07-06T17:13:34;4.65;;;2.45;;
20739;SDS011;10530;49.968;19.844;2022-07-06T17:18:37;6.80;;;2.30;;
20739;SDS011;10530;49.968;19.844;2022-07-06T17:23:40;4.72;;;1.98;;
20739;SDS011;10530;49.968;19.844;2022-07-06T17:28:43;5.73;;;2.53;;
20739;SDS011;10530;49.968;19.844;2022-07-06T17:33:46;4.13;;;2.10;;
20739;SDS011;10530;49.968;19.844;2022-07-06T17:38:49;5.28;;;2.00;;
20739;SDS011;10530;49.968;19.844;2022-07-06T17:43:51;4.50;;;2.40;;
20739;SDS011;10530;49.968;19.844;2022-07-06T17:48:54;3.83;;;1.90;;
20739;SDS011;10530;49.968;19.844;2022-07-06T17:53:57;4.17;;;2.27;;
20739;SDS011;10530;49.968;19.844;2022-07-06T17:59:01;7.22;;;2.30;;
20739;SDS011;10530;49.968;19.844;2022-07-06T18:04:03;4.68;;;2.25;;
20739;SDS011;10530;49.968;19.844;2022-07-06T18:09:06;4.40;;;2.20;;
20739;SDS011;10530;49.968;19.844;2022-07-06T18:14:10;4.00;;;2.10;;
20739;SDS011;10530;49.968;19.844;2022-07-06T18:19:13;4.40;;;2.13;;
20739;SDS011;10530;49.968;19.844;2022-07-06T18:24:16;5.38;;;2.42;;
20739;SDS011;10530;49.968;19.844;2022-07-06T18:29:18;4.65;;;2.03;;
20739;SDS011;10530;49.968;19.844;2022-07-06T18:34:21;5.43;;;2.40;;
20739;SDS011;10530;49.968;19.844;2022-07-06T18:39:24;7.00;;;2.40;;
20739;SDS011;10530;49.968;19.844;2022-07-06T18:44:27;5.33;;;2.57;;
20739;SDS011;10530;49.968;19.844;2022-07-06T18:49:31;5.43;;;2.65;;
20739;SDS011;10530;49.968;19.844;2022-07-06T18:54:34;6.03;;;2.60;;
20739;SDS011;10530;49.968;19.844;2022-07-06T18:59:36;6.57;;;2.80;;
20739;SDS011;10530;49.968;19.844;2022-07-06T19:04:44;6.65;;;3.42;;
20739;SDS011;10530;49.968;19.844;2022-07-06T19:09:47;6.50;;;3.10;;
20739;SDS011;10530;49.968;19.844;2022-07-06T19:14:50;6.43;;;3.33;;
20739;SDS011;10530;49.968;19.844;2022-07-06T19:19:54;7.82;;;3.45;;
20739;SDS011;10530;49.968;19.844;2022-07-06T19:24:57;8.60;;;3.60;;
20739;SDS011;10530;49.968;19.844;2022-07-06T19:30:00;8.95;;;3.78;;
20739;SDS011;10530;49.968;19.844;2022-07-06T19:35:03;9.27;;;4.00;;
20739;SDS011;10530;49.968;19.844;2022-07-06T19:40:06;7.70;;;3.75;;
20739;SDS011;10530;49.968;19.844;2022-07-06T19:45:10;8.00;;;3.58;;
20739;SDS011;10530;49.968;19.844;2022-07-06T19:50:14;9.00;;;4.60;;
20739;SDS011;10530;49.968;19.844;2022-07-06T19:55:17;6.90;;;3.90;;
20739;SDS011;10530;49.968;19.844;2022-07-06T20:00:20;6.70;;;3.90;;
20739;SDS011;10530;49.968;19.844;2022-07-06T20:05:23;8.15;;;4.32;;
20739;SDS011;10530;49.968;19.844;2022-07-06T20:10:26;9.15;;;4.10;;
20739;SDS011;10530;49.968;19.844;2022-07-06T20:15:29;8.60;;;4.40;;
20739;SDS011;10530;49.968;19.844;2022-07-06T20:20:33;8.88;;;4.55;;
20739;SDS011;10530;49.968;19.844;2022-07-06T20:25:35;11.97;;;4.10;;
20739;SDS011;10530;49.968;19.844;2022-07-06T20:30:38;10.70;;;4.47;;
20739;SDS011;10530;49.968;19.844;2022-07-06T20:35:41;8.35;;;4.43;;
20739;SDS011;10530;49.968;19.844;2022-07-06T20:40:44;7.80;;;4.27;;
20739;SDS011;10530;49.968;19.844;2022-07-06T20:45:47;8.50;;;4.63;;
20739;SDS011;10530;49.968;19.844;2022-07-06T20:50:51;9.43;;;4.77;;
20739;SDS011;10530;49.968;19.844;2022-07-06T20:55:53;9.50;;;5.38;;
20739;SDS011;10530;49.968;19.844;2022-07-06T21:00:57;9.73;;;4.40;;
20739;SDS011;10530;49.968;19.844;2022-07-06T21:06:00;10.23;;;4.80;;
20739;SDS011;10530;49.968;19.844;2022-07-06T21:11:03;9.68;;;4.72;;
20739;SDS011;10530;49.968;19.844;2022-07-06T21:16:06;11.23;;;4.77;;
20739;SDS011;10530;49.968;19.844;2022-07-06T21:21:09;10.70;;;4.53;;
20739;SDS011;10530;49.968;19.844;2022-07-06T21:26:12;9.13;;;4.55;;
20739;SDS011;10530;49.968;19.844;2022-07-06T21:31:15;10.33;;;4.80;;
20739;SDS011;10530;49.968;19.844;2022-07-06T21:36:19;11.60;;;5.20;;
20739;SDS011;10530;49.968;19.844;2022-07-06T21:41:22;10.57;;;4.47;;
20739;SDS011;10530;49.968;19.844;2022-07-06T21:46:25;9.20;;;4.57;;
20739;SDS011;10530;49.968;19.844;2022-07-06T21:51:28;10.02;;;4.38;;
20739;SDS011;10530;49.968;19.844;2022-07-06T21:56:31;8.73;;;4.80;;
20739;SDS011;10530;49.968;19.844;2022-07-06T22:01:34;10.35;;;4.45;;
20739;SDS011;10530;49.968;19.844;2022-07-06T22:06:37;9.03;;;4.73;;
20739;SDS011;10530;49.968;19.844;2022-07-06T22:11:39;7.95;;;4.30;;
20739;SDS011;10530;49.968;19.844;2022-07-06T22:16:45;8.70;;;4.40;;
20739;SDS011;10530;49.968;19.844;2022-07-06T22:21:48;10.93;;;4.67;;
20739;SDS011;10530;49.968;19.844;2022-07-06T22:26:51;10.80;;;4.93;;
20739;SDS011;10530;49.968;19.844;2022-07-06T22:31:53;9.87;;;4.97;;
20739;SDS011;10530;49.968;19.844;2022-07-06T22:36:56;9.95;;;4.60;;
20739;SDS011;10530;49.968;19.844;2022-07-06T22:41:59;9.48;;;4.57;;
20739;SDS011;10530;49.968;19.844;2022-07-06T22:47:03;8.10;;;4.60;;
20739;SDS011;10530;49.968;19.844;2022-07-06T22:52:06;9.27;;;4.30;;
20739;SDS011;10530;49.968;19.844;2022-07-06T22:57:09;11.37;;;4.77;;
20739;SDS011;10530;49.968;19.844;2022-07-06T23:02:12;10.35;;;4.95;;
20739;SDS011;10530;49.968;19.844;2022-07-06T23:07:15;8.20;;;4.55;;
20739;SDS011;10530;49.968;19.844;2022-07-06T23:12:18;8.53;;;4.30;;
20739;SDS011;10530;49.968;19.844;2022-07-06T23:17:26;9.85;;;4.60;;
20739;SDS011;10530;49.968;19.844;2022-07-06T23:22:28;8.77;;;4.17;;
20739;SDS011;10530;49.968;19.844;2022-07-06T23:27:31;9.45;;;4.22;;
20739;SDS011;10530;49.968;19.844;2022-07-06T23:32:34;9.27;;;4.30;;
20739;SDS011;10530;49.968;19.844;2022-07-06T23:37:37;8.57;;;4.07;;
20739;SDS011;10530;49.968;19.844;2022-07-06T23:42:43;6.43;;;3.55;;
20739;SDS011;10530;49.968;19.844;2022-07-06T23:47:46;8.27;;;4.20;;
20739;SDS011;10530;49.968;19.844;2022-07-06T23:52:49;8.73;;;3.97;;
20739;SDS011;10530;49.968;19.844;2022-07-06T23:57:51;6.85;;;3.55;;
